sensor_id;sensor_type;location;lat;lon;timestamp;temperature;humidity
22430;DHT22;11382;48.086;11.632;2023-04-30T00:01:48;11.10;99.90
22430;DHT22;11382;48.086;11.632;2023-04-30T00:04:16;11.10;99.90
22430;DHT22;11382;48.086;11.632;2023-04-30T00:06:44;11.10;99.90
22430;DHT22;11382;48.086;11.632;2023-04-30T00:09:13;11.10;99.90
22430;DHT22;11382;48.086;11.632;2023-04-30T00:11:41;11.10;99.90
22430;DHT22;11382;48.086;11.632;2023-04-30T00:14:09;11.10;99.90
22430;DHT22;11382;48.086;11.632;2023-04-30T00:16:37;11.10;99.90
22430;DHT22;11382;48.086;11.632;2023-04-30T00:19:05;11.10;99.90
22430;DHT22;11382;48.086;11.632;2023-04-30T00:21:34;11.10;99.90
22430;DHT22;11382;48.086;11.632;2023-04-30T00:24:02;11.00;99.90
22430;DHT22;11382;48.086;11.632;2023-04-30T00:26:31;10.90;99.90
22430;DHT22;11382;48.086;11.632;2023-04-30T00:29:00;10.90;99.90
22430;DHT22;11382;48.086;11.632;2023-04-30T00:31:27;11.00;99.90
22430;DHT22;11382;48.086;11.632;2023-04-30T00:33:55;11.00;99.90
22430;DHT22;11382;48.086;11.632;2023-04-30T00:36:23;10.90;99.90
22430;DHT22;11382;48.086;11.632;2023-04-30T00:38:51;10.90;99.90
22430;DHT22;11382;48.086;11.632;2023-04-30T00:41:20;10.90;99.90
22430;DHT22;11382;48.086;11.632;2023-04-30T00:43:50;10.90;99.90
22430;DHT22;11382;48.086;11.632;2023-04-30T00:46:21;10.90;99.90
22430;DHT22;11382;48.086;11.632;2023-04-30T00:48:49;10.90;99.90
22430;DHT22;11382;48.086;11.632;2023-04-30T00:51:17;10.80;99.90
22430;DHT22;11382;48.086;11.632;2023-04-30T00:53:45;10.90;99.90
22430;DHT22;11382;48.086;11.632;2023-04-30T00:56:14;10.80;99.90
22430;DHT22;11382;48.086;11.632;2023-04-30T00:58:43;10.70;99.90
22430;DHT22;11382;48.086;11.632;2023-04-30T01:01:13;10.80;99.90
22430;DHT22;11382;48.086;11.632;2023-04-30T01:03:41;10.80;99.90
22430;DHT22;11382;48.086;11.632;2023-04-30T01:06:10;10.70;99.90
22430;DHT22;11382;48.086;11.632;2023-04-30T01:08:38;10.70;99.90
22430;DHT22;11382;48.086;11.632;2023-04-30T01:11:15;10.60;99.90
22430;DHT22;11382;48.086;11.632;2023-04-30T01:14:03;10.60;99.90
22430;DHT22;11382;48.086;11.632;2023-04-30T01:16:40;10.60;99.90
22430;DHT22;11382;48.086;11.632;2023-04-30T01:19:24;10.70;99.90
22430;DHT22;11382;48.086;11.632;2023-04-30T01:21:57;10.70;99.90
22430;DHT22;11382;48.086;11.632;2023-04-30T01:24:42;10.60;99.90
22430;DHT22;11382;48.086;11.632;2023-04-30T01:27:22;10.60;99.90
22430;DHT22;11382;48.086;11.632;2023-04-30T01:29:53;10.70;99.90
22430;DHT22;11382;48.086;11.632;2023-04-30T01:32:24;10.60;99.90
22430;DHT22;11382;48.086;11.632;2023-04-30T01:34:52;10.60;99.90
22430;DHT22;11382;48.086;11.632;2023-04-30T01:37:23;10.60;99.90
22430;DHT22;11382;48.086;11.632;2023-04-30T01:40:03;10.50;99.90
22430;DHT22;11382;48.086;11.632;2023-04-30T01:42:41;10.50;99.90
22430;DHT22;11382;48.086;11.632;2023-04-30T01:45:21;10.50;99.90
22430;DHT22;11382;48.086;11.632;2023-04-30T01:48:10;10.50;99.90
22430;DHT22;11382;48.086;11.632;2023-04-30T01:50:48;10.50;99.90
22430;DHT22;11382;48.086;11.632;2023-04-30T01:53:20;10.50;99.90
22430;DHT22;11382;48.086;11.632;2023-04-30T01:55:54;10.40;99.90
22430;DHT22;11382;48.086;11.632;2023-04-30T01:58:24;10.40;99.90
22430;DHT22;11382;48.086;11.632;2023-04-30T02:00:54;10.40;99.90
22430;DHT22;11382;48.086;11.632;2023-04-30T02:03:22;10.30;99.90
22430;DHT22;11382;48.086;11.632;2023-04-30T02:05:54;10.40;99.90
22430;DHT22;11382;48.086;11.632;2023-04-30T02:08:24;10.30;99.90
22430;DHT22;11382;48.086;11.632;2023-04-30T02:10:52;10.20;99.90
22430;DHT22;11382;48.086;11.632;2023-04-30T02:13:20;10.30;99.90
22430;DHT22;11382;48.086;11.632;2023-04-30T02:15:48;10.20;99.90
22430;DHT22;11382;48.086;11.632;2023-04-30T02:18:18;10.20;99.90
22430;DHT22;11382;48.086;11.632;2023-04-30T02:20:46;10.20;99.90
22430;DHT22;11382;48.086;11.632;2023-04-30T02:23:14;10.20;99.90
22430;DHT22;11382;48.086;11.632;2023-04-30T02:25:42;10.20;99.90
22430;DHT22;11382;48.086;11.632;2023-04-30T02:28:10;10.20;99.90
22430;DHT22;11382;48.086;11.632;2023-04-30T02:30:38;10.20;99.90
22430;DHT22;11382;48.086;11.632;2023-04-30T02:33:07;10.20;99.90
22430;DHT22;11382;48.086;11.632;2023-04-30T02:35:40;10.20;99.90
22430;DHT22;11382;48.086;11.632;2023-04-30T02:38:08;10.20;99.90
22430;DHT22;11382;48.086;11.632;2023-04-30T02:40:36;10.20;99.90
22430;DHT22;11382;48.086;11.632;2023-04-30T02:43:04;10.20;99.90
22430;DHT22;11382;48.086;11.632;2023-04-30T02:45:32;10.20;99.90
22430;DHT22;11382;48.086;11.632;2023-04-30T02:48:00;10.20;99.90
22430;DHT22;11382;48.086;11.632;2023-04-30T02:50:28;10.20;99.90
22430;DHT22;11382;48.086;11.632;2023-04-30T02:52:58;10.30;99.90
22430;DHT22;11382;48.086;11.632;2023-04-30T02:55:26;10.30;99.90
22430;DHT22;11382;48.086;11.632;2023-04-30T02:57:53;10.20;99.90
22430;DHT22;11382;48.086;11.632;2023-04-30T03:00:21;10.10;99.90
22430;DHT22;11382;48.086;11.632;2023-04-30T03:02:49;10.10;99.90
22430;DHT22;11382;48.086;11.632;2023-04-30T03:05:17;10.10;99.90
22430;DHT22;11382;48.086;11.632;2023-04-30T03:07:45;10.10;99.90
22430;DHT22;11382;48.086;11.632;2023-04-30T03:10:15;10.10;99.90
22430;DHT22;11382;48.086;11.632;2023-04-30T03:12:44;10.10;99.90
22430;DHT22;11382;48.086;11.632;2023-04-30T03:15:12;10.10;99.90
22430;DHT22;11382;48.086;11.632;2023-04-30T03:17:40;9.90;99.90
22430;DHT22;11382;48.086;11.632;2023-04-30T03:20:12;9.90;99.90
22430;DHT22;11382;48.086;11.632;2023-04-30T03:22:40;9.80;99.90
22430;DHT22;11382;48.086;11.632;2023-04-30T03:25:09;9.80;99.90
22430;DHT22;11382;48.086;11.632;2023-04-30T03:27:38;9.80;99.90
22430;DHT22;11382;48.086;11.632;2023-04-30T03:30:07;9.80;99.90
22430;DHT22;11382;48.086;11.632;2023-04-30T03:32:35;9.70;99.90
22430;DHT22;11382;48.086;11.632;2023-04-30T03:35:05;9.70;99.90
22430;DHT22;11382;48.086;11.632;2023-04-30T03:37:33;9.70;99.90
22430;DHT22;11382;48.086;11.632;2023-04-30T03:40:01;9.80;99.90
22430;DHT22;11382;48.086;11.632;2023-04-30T03:42:30;9.80;99.90
22430;DHT22;11382;48.086;11.632;2023-04-30T03:45:00;9.80;99.90
22430;DHT22;11382;48.086;11.632;2023-04-30T03:47:27;9.70;99.90
22430;DHT22;11382;48.086;11.632;2023-04-30T03:49:55;9.70;99.90
22430;DHT22;11382;48.086;11.632;2023-04-30T03:52:24;9.70;99.90
22430;DHT22;11382;48.086;11.632;2023-04-30T03:54:52;9.60;99.90
22430;DHT22;11382;48.086;11.632;2023-04-30T03:57:20;9.60;99.90
22430;DHT22;11382;48.086;11.632;2023-04-30T03:59:49;9.50;99.90
22430;DHT22;11382;48.086;11.632;2023-04-30T04:02:18;9.50;99.90
22430;DHT22;11382;48.086;11.632;2023-04-30T04:04:47;9.40;99.90
22430;DHT22;11382;48.086;11.632;2023-04-30T04:07:16;9.40;99.90
22430;DHT22;11382;48.086;11.632;2023-04-30T04:09:45;9.30;99.90
22430;DHT22;11382;48.086;11.632;2023-04-30T04:12:13;9.30;99.90
22430;DHT22;11382;48.086;11.632;2023-04-30T04:14:41;9.40;99.90
22430;DHT22;11382;48.086;11.632;2023-04-30T04:17:09;9.40;99.90
22430;DHT22;11382;48.086;11.632;2023-04-30T04:19:38;9.40;99.90
22430;DHT22;11382;48.086;11.632;2023-04-30T04:22:07;9.50;99.90
22430;DHT22;11382;48.086;11.632;2023-04-30T04:24:35;9.60;99.90
22430;DHT22;11382;48.086;11.632;2023-04-30T04:27:04;9.70;99.90
22430;DHT22;11382;48.086;11.632;2023-04-30T04:29:32;9.70;99.90
22430;DHT22;11382;48.086;11.632;2023-04-30T04:32:00;9.70;99.90
22430;DHT22;11382;48.086;11.632;2023-04-30T04:34:30;9.80;99.90
22430;DHT22;11382;48.086;11.632;2023-04-30T04:37:00;9.80;99.90
22430;DHT22;11382;48.086;11.632;2023-04-30T04:39:28;9.90;99.90
22430;DHT22;11382;48.086;11.632;2023-04-30T04:41:56;9.80;99.90
22430;DHT22;11382;48.086;11.632;2023-04-30T04:44:24;9.90;99.90
22430;DHT22;11382;48.086;11.632;2023-04-30T04:46:52;10.00;99.90
22430;DHT22;11382;48.086;11.632;2023-04-30T04:49:22;10.10;99.90
22430;DHT22;11382;48.086;11.632;2023-04-30T04:51:51;10.10;99.90
22430;DHT22;11382;48.086;11.632;2023-04-30T04:54:21;10.20;99.90
22430;DHT22;11382;48.086;11.632;2023-04-30T04:56:49;10.20;99.90
22430;DHT22;11382;48.086;11.632;2023-04-30T04:59:17;10.20;99.90
22430;DHT22;11382;48.086;11.632;2023-04-30T05:01:46;10.20;99.90
22430;DHT22;11382;48.086;11.632;2023-04-30T05:04:14;10.30;99.90
22430;DHT22;11382;48.086;11.632;2023-04-30T05:06:44;10.30;99.90
22430;DHT22;11382;48.086;11.632;2023-04-30T05:09:12;10.30;99.90
22430;DHT22;11382;48.086;11.632;2023-04-30T05:11:42;10.30;99.90
22430;DHT22;11382;48.086;11.632;2023-04-30T05:14:11;10.20;99.90
22430;DHT22;11382;48.086;11.632;2023-04-30T05:16:39;10.20;99.90
22430;DHT22;11382;48.086;11.632;2023-04-30T05:19:07;10.40;99.90
22430;DHT22;11382;48.086;11.632;2023-04-30T05:21:35;10.20;99.90
22430;DHT22;11382;48.086;11.632;2023-04-30T05:24:04;10.20;99.90
22430;DHT22;11382;48.086;11.632;2023-04-30T05:26:32;10.20;99.90
22430;DHT22;11382;48.086;11.632;2023-04-30T05:29:01;10.40;99.90
22430;DHT22;11382;48.086;11.632;2023-04-30T05:31:29;10.60;99.90
22430;DHT22;11382;48.086;11.632;2023-04-30T05:33:58;10.70;99.90
22430;DHT22;11382;48.086;11.632;2023-04-30T05:36:26;10.90;99.90
22430;DHT22;11382;48.086;11.632;2023-04-30T05:38:54;11.00;99.90
22430;DHT22;11382;48.086;11.632;2023-04-30T05:41:22;11.10;99.90
22430;DHT22;11382;48.086;11.632;2023-04-30T05:43:50;11.30;99.90
22430;DHT22;11382;48.086;11.632;2023-04-30T05:46:19;11.30;99.90
22430;DHT22;11382;48.086;11.632;2023-04-30T05:48:47;11.30;99.90
22430;DHT22;11382;48.086;11.632;2023-04-30T05:51:15;11.50;99.90
22430;DHT22;11382;48.086;11.632;2023-04-30T05:53:43;11.60;99.90
22430;DHT22;11382;48.086;11.632;2023-04-30T05:56:11;11.40;99.90
22430;DHT22;11382;48.086;11.632;2023-04-30T05:58:39;11.30;99.90
22430;DHT22;11382;48.086;11.632;2023-04-30T06:01:07;11.30;99.90
22430;DHT22;11382;48.086;11.632;2023-04-30T06:03:39;11.50;99.90
22430;DHT22;11382;48.086;11.632;2023-04-30T06:06:07;11.40;99.90
22430;DHT22;11382;48.086;11.632;2023-04-30T06:08:35;11.80;99.90
22430;DHT22;11382;48.086;11.632;2023-04-30T06:11:03;11.60;99.90
22430;DHT22;11382;48.086;11.632;2023-04-30T06:13:32;11.80;99.90
22430;DHT22;11382;48.086;11.632;2023-04-30T06:16:00;12.10;99.90
22430;DHT22;11382;48.086;11.632;2023-04-30T06:18:28;12.20;99.90
22430;DHT22;11382;48.086;11.632;2023-04-30T06:20:57;12.60;99.90
22430;DHT22;11382;48.086;11.632;2023-04-30T06:23:25;13.00;99.90
22430;DHT22;11382;48.086;11.632;2023-04-30T06:25:53;13.30;99.90
22430;DHT22;11382;48.086;11.632;2023-04-30T06:28:21;13.60;99.90
22430;DHT22;11382;48.086;11.632;2023-04-30T06:30:49;13.90;99.90
22430;DHT22;11382;48.086;11.632;2023-04-30T06:33:17;14.10;99.90
22430;DHT22;11382;48.086;11.632;2023-04-30T06:35:45;14.50;99.90
22430;DHT22;11382;48.086;11.632;2023-04-30T06:38:14;14.90;99.90
22430;DHT22;11382;48.086;11.632;2023-04-30T06:40:43;15.10;99.90
22430;DHT22;11382;48.086;11.632;2023-04-30T06:43:11;15.00;99.90
22430;DHT22;11382;48.086;11.632;2023-04-30T06:45:39;14.80;99.90
22430;DHT22;11382;48.086;11.632;2023-04-30T06:48:07;14.80;99.90
22430;DHT22;11382;48.086;11.632;2023-04-30T06:50:35;14.90;99.90
22430;DHT22;11382;48.086;11.632;2023-04-30T06:53:10;14.80;99.90
22430;DHT22;11382;48.086;11.632;2023-04-30T06:55:40;15.60;99.90
22430;DHT22;11382;48.086;11.632;2023-04-30T06:58:08;16.50;99.90
22430;DHT22;11382;48.086;11.632;2023-04-30T07:00:36;17.90;99.90
22430;DHT22;11382;48.086;11.632;2023-04-30T07:03:04;20.90;99.90
22430;DHT22;11382;48.086;11.632;2023-04-30T07:05:32;21.80;99.40
22430;DHT22;11382;48.086;11.632;2023-04-30T07:08:02;22.00;96.10
22430;DHT22;11382;48.086;11.632;2023-04-30T07:10:30;21.90;96.90
22430;DHT22;11382;48.086;11.632;2023-04-30T07:12:59;22.10;95.60
22430;DHT22;11382;48.086;11.632;2023-04-30T07:15:28;20.90;97.50
22430;DHT22;11382;48.086;11.632;2023-04-30T07:17:56;20.50;97.10
22430;DHT22;11382;48.086;11.632;2023-04-30T07:20:24;18.80;99.10
22430;DHT22;11382;48.086;11.632;2023-04-30T07:22:52;18.60;99.90
22430;DHT22;11382;48.086;11.632;2023-04-30T07:25:21;18.70;99.90
22430;DHT22;11382;48.086;11.632;2023-04-30T07:27:50;18.10;99.90
22430;DHT22;11382;48.086;11.632;2023-04-30T07:30:20;16.30;99.90
22430;DHT22;11382;48.086;11.632;2023-04-30T07:32:50;15.20;99.90
22430;DHT22;11382;48.086;11.632;2023-04-30T07:35:19;15.10;99.90
22430;DHT22;11382;48.086;11.632;2023-04-30T07:37:46;15.60;99.90
22430;DHT22;11382;48.086;11.632;2023-04-30T07:40:14;16.00;99.90
22430;DHT22;11382;48.086;11.632;2023-04-30T07:43:00;16.30;99.90
22430;DHT22;11382;48.086;11.632;2023-04-30T07:45:30;15.70;99.90
22430;DHT22;11382;48.086;11.632;2023-04-30T07:48:00;15.50;99.90
22430;DHT22;11382;48.086;11.632;2023-04-30T07:50:28;15.70;99.90
22430;DHT22;11382;48.086;11.632;2023-04-30T07:53:00;15.70;99.90
22430;DHT22;11382;48.086;11.632;2023-04-30T07:55:28;15.50;99.90
22430;DHT22;11382;48.086;11.632;2023-04-30T07:57:56;15.80;99.90
22430;DHT22;11382;48.086;11.632;2023-04-30T08:00:25;16.10;99.90
22430;DHT22;11382;48.086;11.632;2023-04-30T08:02:56;16.40;99.90
22430;DHT22;11382;48.086;11.632;2023-04-30T08:05:25;16.30;99.90
22430;DHT22;11382;48.086;11.632;2023-04-30T08:07:53;16.10;99.90
22430;DHT22;11382;48.086;11.632;2023-04-30T08:10:21;16.20;99.90
22430;DHT22;11382;48.086;11.632;2023-04-30T08:12:49;17.50;99.90
22430;DHT22;11382;48.086;11.632;2023-04-30T08:15:17;19.20;99.90
22430;DHT22;11382;48.086;11.632;2023-04-30T08:17:48;18.50;99.90
22430;DHT22;11382;48.086;11.632;2023-04-30T08:20:18;19.00;99.90
22430;DHT22;11382;48.086;11.632;2023-04-30T08:22:46;18.90;99.90
22430;DHT22;11382;48.086;11.632;2023-04-30T08:25:14;19.60;99.90
22430;DHT22;11382;48.086;11.632;2023-04-30T08:27:42;22.40;97.90
22430;DHT22;11382;48.086;11.632;2023-04-30T08:30:10;24.60;93.70
22430;DHT22;11382;48.086;11.632;2023-04-30T08:32:38;24.20;91.60
22430;DHT22;11382;48.086;11.632;2023-04-30T08:35:08;21.90;92.10
22430;DHT22;11382;48.086;11.632;2023-04-30T08:37:37;19.70;96.60
22430;DHT22;11382;48.086;11.632;2023-04-30T08:40:07;18.40;99.30
22430;DHT22;11382;48.086;11.632;2023-04-30T08:42:43;17.80;99.90
22430;DHT22;11382;48.086;11.632;2023-04-30T08:45:11;16.90;99.90
22430;DHT22;11382;48.086;11.632;2023-04-30T08:47:40;15.90;99.90
22430;DHT22;11382;48.086;11.632;2023-04-30T08:50:08;16.60;99.90
22430;DHT22;11382;48.086;11.632;2023-04-30T08:52:41;16.70;99.90
22430;DHT22;11382;48.086;11.632;2023-04-30T08:55:10;16.50;99.90
22430;DHT22;11382;48.086;11.632;2023-04-30T08:57:38;16.90;99.90
22430;DHT22;11382;48.086;11.632;2023-04-30T09:00:07;18.20;99.90
22430;DHT22;11382;48.086;11.632;2023-04-30T09:02:38;19.90;99.90
22430;DHT22;11382;48.086;11.632;2023-04-30T09:05:09;19.60;99.90
22430;DHT22;11382;48.086;11.632;2023-04-30T09:07:40;22.50;97.40
22430;DHT22;11382;48.086;11.632;2023-04-30T09:10:19;22.50;93.00
22430;DHT22;11382;48.086;11.632;2023-04-30T09:12:58;20.60;94.90
22430;DHT22;11382;48.086;11.632;2023-04-30T09:15:27;18.20;99.20
22430;DHT22;11382;48.086;11.632;2023-04-30T09:18:06;17.60;99.90
22430;DHT22;11382;48.086;11.632;2023-04-30T09:20:34;17.50;99.90
22430;DHT22;11382;48.086;11.632;2023-04-30T09:23:08;17.20;99.90
22430;DHT22;11382;48.086;11.632;2023-04-30T09:25:40;17.30;99.90
22430;DHT22;11382;48.086;11.632;2023-04-30T09:28:09;16.60;99.90
22430;DHT22;11382;48.086;11.632;2023-04-30T09:30:37;15.80;99.90
22430;DHT22;11382;48.086;11.632;2023-04-30T09:33:05;15.40;99.90
22430;DHT22;11382;48.086;11.632;2023-04-30T09:35:38;15.50;99.90
22430;DHT22;11382;48.086;11.632;2023-04-30T09:38:25;15.50;99.90
22430;DHT22;11382;48.086;11.632;2023-04-30T09:40:53;15.20;99.90
22430;DHT22;11382;48.086;11.632;2023-04-30T09:43:21;15.30;99.90
22430;DHT22;11382;48.086;11.632;2023-04-30T09:45:49;15.30;99.90
22430;DHT22;11382;48.086;11.632;2023-04-30T09:48:21;15.60;99.90
22430;DHT22;11382;48.086;11.632;2023-04-30T09:50:50;15.80;99.90
22430;DHT22;11382;48.086;11.632;2023-04-30T09:53:20;16.20;99.90
22430;DHT22;11382;48.086;11.632;2023-04-30T09:55:50;15.90;99.90
22430;DHT22;11382;48.086;11.632;2023-04-30T09:58:18;16.10;99.90
22430;DHT22;11382;48.086;11.632;2023-04-30T10:00:46;16.10;99.90
22430;DHT22;11382;48.086;11.632;2023-04-30T10:03:16;16.40;99.90
22430;DHT22;11382;48.086;11.632;2023-04-30T10:05:46;17.10;99.90
22430;DHT22;11382;48.086;11.632;2023-04-30T10:08:21;17.30;99.90
22430;DHT22;11382;48.086;11.632;2023-04-30T10:10:58;17.90;99.90
22430;DHT22;11382;48.086;11.632;2023-04-30T10:13:30;17.20;99.90
22430;DHT22;11382;48.086;11.632;2023-04-30T10:16:06;17.00;99.90
22430;DHT22;11382;48.086;11.632;2023-04-30T10:18:38;17.40;99.90
22430;DHT22;11382;48.086;11.632;2023-04-30T10:21:08;17.60;99.90
22430;DHT22;11382;48.086;11.632;2023-04-30T10:23:40;17.90;99.90
22430;DHT22;11382;48.086;11.632;2023-04-30T10:26:09;18.50;99.90
22430;DHT22;11382;48.086;11.632;2023-04-30T10:28:38;17.80;99.90
22430;DHT22;11382;48.086;11.632;2023-04-30T10:31:06;17.80;99.90
22430;DHT22;11382;48.086;11.632;2023-04-30T10:33:41;17.30;99.90
22430;DHT22;11382;48.086;11.632;2023-04-30T10:36:23;16.90;99.90
22430;DHT22;11382;48.086;11.632;2023-04-30T10:38:55;16.90;99.90
22430;DHT22;11382;48.086;11.632;2023-04-30T10:41:25;16.70;99.90
22430;DHT22;11382;48.086;11.632;2023-04-30T10:43:56;16.10;99.90
22430;DHT22;11382;48.086;11.632;2023-04-30T10:46:29;16.00;99.90
22430;DHT22;11382;48.086;11.632;2023-04-30T10:48:57;16.70;99.90
22430;DHT22;11382;48.086;11.632;2023-04-30T10:51:45;17.10;99.90
22430;DHT22;11382;48.086;11.632;2023-04-30T10:54:22;17.60;99.90
22430;DHT22;11382;48.086;11.632;2023-04-30T10:56:51;17.90;99.90
22430;DHT22;11382;48.086;11.632;2023-04-30T10:59:19;18.70;99.90
22430;DHT22;11382;48.086;11.632;2023-04-30T11:01:54;18.30;99.90
22430;DHT22;11382;48.086;11.632;2023-04-30T11:04:22;20.50;98.30
22430;DHT22;11382;48.086;11.632;2023-04-30T11:07:00;21.40;95.50
22430;DHT22;11382;48.086;11.632;2023-04-30T11:09:41;23.30;92.90
22430;DHT22;11382;48.086;11.632;2023-04-30T11:12:13;20.60;93.60
22430;DHT22;11382;48.086;11.632;2023-04-30T11:14:42;19.60;96.30
22430;DHT22;11382;48.086;11.632;2023-04-30T11:17:12;20.00;95.50
22430;DHT22;11382;48.086;11.632;2023-04-30T11:19:46;19.70;97.00
22430;DHT22;11382;48.086;11.632;2023-04-30T11:22:21;18.80;98.40
22430;DHT22;11382;48.086;11.632;2023-04-30T11:25:01;19.20;98.90
22430;DHT22;11382;48.086;11.632;2023-04-30T11:27:31;19.60;97.50
22430;DHT22;11382;48.086;11.632;2023-04-30T11:30:01;20.10;96.90
22430;DHT22;11382;48.086;11.632;2023-04-30T11:32:32;21.20;95.00
22430;DHT22;11382;48.086;11.632;2023-04-30T11:35:01;20.10;95.60
22430;DHT22;11382;48.086;11.632;2023-04-30T11:37:31;19.40;96.80
22430;DHT22;11382;48.086;11.632;2023-04-30T11:40:03;18.80;96.70
22430;DHT22;11382;48.086;11.632;2023-04-30T11:42:31;17.80;99.20
22430;DHT22;11382;48.086;11.632;2023-04-30T11:45:06;17.40;99.90
22430;DHT22;11382;48.086;11.632;2023-04-30T11:47:37;17.40;99.90
22430;DHT22;11382;48.086;11.632;2023-04-30T11:50:06;17.50;99.40
22430;DHT22;11382;48.086;11.632;2023-04-30T11:52:35;17.90;99.40
22430;DHT22;11382;48.086;11.632;2023-04-30T11:55:12;17.90;99.70
22430;DHT22;11382;48.086;11.632;2023-04-30T11:57:42;17.30;99.90
22430;DHT22;11382;48.086;11.632;2023-04-30T12:00:12;17.30;99.90
22430;DHT22;11382;48.086;11.632;2023-04-30T12:02:40;17.00;99.90
22430;DHT22;11382;48.086;11.632;2023-04-30T12:05:14;16.50;99.90
22430;DHT22;11382;48.086;11.632;2023-04-30T12:07:46;16.90;99.90
22430;DHT22;11382;48.086;11.632;2023-04-30T12:10:17;16.70;99.90
22430;DHT22;11382;48.086;11.632;2023-04-30T12:12:46;16.60;99.90
22430;DHT22;11382;48.086;11.632;2023-04-30T12:15:19;16.80;99.90
22430;DHT22;11382;48.086;11.632;2023-04-30T12:17:48;16.50;99.90
22430;DHT22;11382;48.086;11.632;2023-04-30T12:20:16;16.60;99.90
22430;DHT22;11382;48.086;11.632;2023-04-30T12:22:45;16.40;99.90
22430;DHT22;11382;48.086;11.632;2023-04-30T12:25:16;16.40;99.90
22430;DHT22;11382;48.086;11.632;2023-04-30T12:27:46;16.10;99.90
22430;DHT22;11382;48.086;11.632;2023-04-30T12:30:14;16.40;99.90
22430;DHT22;11382;48.086;11.632;2023-04-30T12:32:48;17.00;99.90
22430;DHT22;11382;48.086;11.632;2023-04-30T12:35:19;17.60;99.90
22430;DHT22;11382;48.086;11.632;2023-04-30T12:37:49;17.60;99.50
22430;DHT22;11382;48.086;11.632;2023-04-30T12:40:25;17.80;99.70
22430;DHT22;11382;48.086;11.632;2023-04-30T12:42:59;17.40;99.50
22430;DHT22;11382;48.086;11.632;2023-04-30T12:45:44;17.10;99.90
22430;DHT22;11382;48.086;11.632;2023-04-30T12:48:14;17.70;99.90
22430;DHT22;11382;48.086;11.632;2023-04-30T12:50:47;17.50;99.90
22430;DHT22;11382;48.086;11.632;2023-04-30T12:53:15;17.10;99.90
22430;DHT22;11382;48.086;11.632;2023-04-30T12:56:10;16.40;99.90
22430;DHT22;11382;48.086;11.632;2023-04-30T12:58:39;16.30;99.90
22430;DHT22;11382;48.086;11.632;2023-04-30T13:01:10;16.80;99.90
22430;DHT22;11382;48.086;11.632;2023-04-30T13:03:39;16.50;99.90
22430;DHT22;11382;48.086;11.632;2023-04-30T13:06:07;16.90;99.90
22430;DHT22;11382;48.086;11.632;2023-04-30T13:08:36;17.10;99.90
22430;DHT22;11382;48.086;11.632;2023-04-30T13:11:23;16.60;99.90
22430;DHT22;11382;48.086;11.632;2023-04-30T13:13:53;16.60;99.90
22430;DHT22;11382;48.086;11.632;2023-04-30T13:16:22;16.30;99.90
22430;DHT22;11382;48.086;11.632;2023-04-30T13:18:52;16.60;99.90
22430;DHT22;11382;48.086;11.632;2023-04-30T13:21:20;16.70;99.90
22430;DHT22;11382;48.086;11.632;2023-04-30T13:23:48;16.40;99.90
22430;DHT22;11382;48.086;11.632;2023-04-30T13:26:20;16.50;99.90
22430;DHT22;11382;48.086;11.632;2023-04-30T13:28:51;16.70;99.90
22430;DHT22;11382;48.086;11.632;2023-04-30T13:31:19;16.70;99.90
22430;DHT22;11382;48.086;11.632;2023-04-30T13:33:47;16.70;99.90
22430;DHT22;11382;48.086;11.632;2023-04-30T13:36:15;16.70;99.90
22430;DHT22;11382;48.086;11.632;2023-04-30T13:38:43;16.60;99.90
22430;DHT22;11382;48.086;11.632;2023-04-30T13:41:11;16.60;99.90
22430;DHT22;11382;48.086;11.632;2023-04-30T13:43:39;16.80;99.90
22430;DHT22;11382;48.086;11.632;2023-04-30T13:46:10;16.70;99.90
22430;DHT22;11382;48.086;11.632;2023-04-30T13:48:38;16.50;99.90
22430;DHT22;11382;48.086;11.632;2023-04-30T13:51:06;16.30;99.90
22430;DHT22;11382;48.086;11.632;2023-04-30T13:53:34;16.40;99.90
22430;DHT22;11382;48.086;11.632;2023-04-30T13:56:03;16.60;99.90
22430;DHT22;11382;48.086;11.632;2023-04-30T13:58:31;16.60;99.90
22430;DHT22;11382;48.086;11.632;2023-04-30T14:00:59;16.50;99.90
22430;DHT22;11382;48.086;11.632;2023-04-30T14:03:28;16.60;99.90
22430;DHT22;11382;48.086;11.632;2023-04-30T14:05:57;16.60;99.90
22430;DHT22;11382;48.086;11.632;2023-04-30T14:08:25;16.70;99.90
22430;DHT22;11382;48.086;11.632;2023-04-30T14:10:53;17.00;99.90
22430;DHT22;11382;48.086;11.632;2023-04-30T14:13:22;17.10;99.90
22430;DHT22;11382;48.086;11.632;2023-04-30T14:15:50;17.20;99.70
22430;DHT22;11382;48.086;11.632;2023-04-30T14:18:18;17.20;99.60
22430;DHT22;11382;48.086;11.632;2023-04-30T14:20:49;17.10;99.80
22430;DHT22;11382;48.086;11.632;2023-04-30T14:23:17;16.70;99.60
22430;DHT22;11382;48.086;11.632;2023-04-30T14:25:48;16.80;99.90
22430;DHT22;11382;48.086;11.632;2023-04-30T14:28:16;16.90;99.50
22430;DHT22;11382;48.086;11.632;2023-04-30T14:30:44;17.00;99.40
22430;DHT22;11382;48.086;11.632;2023-04-30T14:33:12;16.80;99.40
22430;DHT22;11382;48.086;11.632;2023-04-30T14:35:40;16.80;99.60
22430;DHT22;11382;48.086;11.632;2023-04-30T14:38:09;16.70;99.30
22430;DHT22;11382;48.086;11.632;2023-04-30T14:40:37;16.70;99.50
22430;DHT22;11382;48.086;11.632;2023-04-30T14:43:05;16.80;99.90
22430;DHT22;11382;48.086;11.632;2023-04-30T14:45:33;17.10;99.20
22430;DHT22;11382;48.086;11.632;2023-04-30T14:48:01;17.10;98.90
22430;DHT22;11382;48.086;11.632;2023-04-30T14:50:31;16.70;99.80
22430;DHT22;11382;48.086;11.632;2023-04-30T14:52:59;16.80;99.90
22430;DHT22;11382;48.086;11.632;2023-04-30T14:55:28;16.50;99.90
22430;DHT22;11382;48.086;11.632;2023-04-30T14:57:58;16.40;99.90
22430;DHT22;11382;48.086;11.632;2023-04-30T15:00:26;16.40;99.90
22430;DHT22;11382;48.086;11.632;2023-04-30T15:02:54;16.60;99.90
22430;DHT22;11382;48.086;11.632;2023-04-30T15:05:22;16.70;99.90
22430;DHT22;11382;48.086;11.632;2023-04-30T15:07:51;16.90;99.90
22430;DHT22;11382;48.086;11.632;2023-04-30T15:10:19;17.20;99.50
22430;DHT22;11382;48.086;11.632;2023-04-30T15:12:48;17.40;99.80
22430;DHT22;11382;48.086;11.632;2023-04-30T15:15:17;17.40;99.10
22430;DHT22;11382;48.086;11.632;2023-04-30T15:17:47;17.30;98.70
22430;DHT22;11382;48.086;11.632;2023-04-30T15:20:15;17.10;99.50
22430;DHT22;11382;48.086;11.632;2023-04-30T15:22:43;17.30;99.60
22430;DHT22;11382;48.086;11.632;2023-04-30T15:25:12;17.00;99.50
22430;DHT22;11382;48.086;11.632;2023-04-30T15:27:40;16.80;99.90
22430;DHT22;11382;48.086;11.632;2023-04-30T15:30:10;16.80;99.90
22430;DHT22;11382;48.086;11.632;2023-04-30T15:32:38;16.70;99.90
22430;DHT22;11382;48.086;11.632;2023-04-30T15:35:08;17.00;99.90